Akron, Michigan
Current Conditions -  °F | °C
As of 12:35 AM on Sunday 26 Oct 2014 (Local Time) from KCFS Reporting Station
Clear Clear  
Wind Chill: 40°   Ceiling: Unl
Heat Index: 44°   Visibility: 10mi
Dew Point: 34°   Wind: 6mph
Humidity: 70%   Direction: 270°W
Pressure: 29.8"   Gusts: NA
Location:  43.57°N, 83.51°W
Report Text: KCFS 260435Z AUTO 27005KT 10SM CLR 06/01 A2980 RMK AO2 T00640013
Loading
Personal Weather Stations






























Interactive Weather Map
Tropical Storm Tracking
New forecast layout! Learn more

10-Day Weather Forecast

Advertisements
Track Severe Weather on mobile